Time;durP1;ratioP1;P1;durP2;ratioP2;P2;SDS_P1;SDS_P2;PMS_P1;PMS_P2;Temp;Humidity;BMP_temperature;BMP_pressure;BME280_temperature;BME280_humidity;BME280_pressure;Samples;Min_cycle;Max_cycle;Signal;HPM_P1;HPM_P2
2023/06/21 00:01:38;;;;;;;;;;;;;;;;;;6286410;22;20252;-95
2023/06/21 00:04:12;;;;;;;;;;;;;;;;;;6265998;22;19943;-91
2023/06/21 00:06:54;;;;;;;;;;;;;;;;;;6294265;22;19975;-95
2023/06/21 00:09:29;;;;;;;;;;;;;;;;;;6259766;22;20265;-95
2023/06/21 00:11:55;;;;;;;;;;;;;;;;;;6256052;22;19994;-95
2023/06/21 00:14:21;;;;;;;;;;;;;;;;;;6255320;22;19914;-94
2023/06/21 00:16:47;;;;;;;;;;;;;;;;;;6287958;22;20304;-94
2023/06/21 00:19:13;;;;;;;;;;;;;;;;;;6255124;22;19922;-93
2023/06/21 00:21:40;;;;;;;;;;;;;;;;;;6280564;22;19919;-94
2023/06/21 00:24:06;;;;;;;;;;;;;;;;;;6255567;22;19930;-95
2023/06/21 00:26:35;;;;;;;;;;;;;;;;;;6255922;22;19914;-95
2023/06/21 00:29:01;;;;;;;;;;;;;;;;;;6255247;22;19993;-96
2023/06/21 00:31:27;;;;;;;;;;;;;;;;;;6255526;22;19918;-96
2023/06/21 00:33:56;;;;;;;;;;;;;;;;;;6256849;22;19915;-94
2023/06/21 00:36:21;;;;;;;;;;;;;;;;;;6280326;22;20336;-93
2023/06/21 00:38:48;;;;;;;;;;;;;;;;;;6255083;22;19962;-94
2023/06/21 00:41:14;;;;;;;;;;;;;;;;;;6280854;22;19969;-95
2023/06/21 00:43:40;;;;;;;;;;;;;;;;;;6280772;22;19919;-93
2023/06/21 00:46:05;;;;;;;;;;;;;;;;;;6254735;22;19964;-94
2023/06/21 00:48:31;;;;;;;;;;;;;;;;;;6280368;22;19915;-94
2023/06/21 00:50:57;;;;;;;;;;;;;;;;;;6255061;22;19915;-94
2023/06/21 00:53:23;;;;;;;;;;;;;;;;;;6254499;22;20079;-93
2023/06/21 00:55:49;;;;;;;;;;;;;;;;;;6280215;22;19922;-94
2023/06/21 00:58:15;;;;;;;;;;;;;;;;;;6280055;22;19954;-94
2023/06/21 01:00:43;;;;;;;;;;;;;;;;;;6254070;22;19922;-93
2023/06/21 01:03:09;;;;;;;;;;;;;;;;;;6254391;22;19961;-94
2023/06/21 01:05:36;;;;;;;;;;;;;;;;;;6280467;22;19922;-95
2023/06/21 01:08:02;;;;;;;;;;;;;;;;;;6279775;22;19985;-95
2023/06/21 01:10:28;;;;;;;;;;;;;;;;;;6255822;22;19964;-95
2023/06/21 01:12:54;;;;;;;;;;;;;;;;;;6280172;22;19990;-93
2023/06/21 01:15:20;;;;;;;;;;;;;;;;;;6254716;22;19918;-91
2023/06/21 01:17:46;;;;;;;;;;;;;;;;;;6253966;22;19926;-93
2023/06/21 01:20:18;;;;;;;;;;;;;;;;;;6280506;22;20332;-93
2023/06/21 01:22:44;;;;;;;;;;;;;;;;;;6254506;22;19941;-93
2023/06/21 01:25:11;;;;;;;;;;;;;;;;;;6257430;22;19934;-91
2023/06/21 01:27:56;;;;;;;;;;;;;;;;;;6311280;22;19937;-93
2023/06/21 01:30:25;;;;;;;;;;;;;;;;;;6263985;22;19919;-95
2023/06/21 01:32:53;;;;;;;;;;;;;;;;;;6254488;22;19915;-95
2023/06/21 01:35:20;;;;;;;;;;;;;;;;;;6254962;22;19965;-95
2023/06/21 01:37:46;;;;;;;;;;;;;;;;;;6279151;22;19999;-95
2023/06/21 01:40:15;;;;;;;;;;;;;;;;;;6258191;22;19922;-96
2023/06/21 01:42:51;;;;;;;;;;;;;;;;;;6284533;22;19983;-95
2023/06/21 01:45:24;;;;;;;;;;;;;;;;;;6255210;22;19989;-96
2023/06/21 01:47:51;;;;;;;;;;;;;;;;;;6280391;22;20332;-93
2023/06/21 01:50:17;;;;;;;;;;;;;;;;;;6254907;22;19919;-94
2023/06/21 01:52:43;;;;;;;;;;;;;;;;;;6279960;22;19921;-93
2023/06/21 01:55:09;;;;;;;;;;;;;;;;;;6280931;22;19915;-92
2023/06/21 01:57:35;;;;;;;;;;;;;;;;;;6281540;22;19922;-94
2023/06/21 02:00:02;;;;;;;;;;;;;;;;;;6256857;22;19914;-94
2023/06/21 02:02:28;;;;;;;;;;;;;;;;;;6256360;22;19919;-94
2023/06/21 02:04:54;;;;;;;;;;;;;;;;;;6281648;22;20240;-94
2023/06/21 02:07:19;;;;;;;;;;;;;;;;;;6281147;22;19919;-95
2023/06/21 02:09:45;;;;;;;;;;;;;;;;;;6282171;22;19997;-93
2023/06/21 02:12:11;;;;;;;;;;;;;;;;;;6281771;22;19969;-94
2023/06/21 02:14:38;;;;;;;;;;;;;;;;;;6281643;22;19990;-94
2023/06/21 02:17:04;;;;;;;;;;;;;;;;;;6282040;22;19925;-94
2023/06/21 02:19:29;;;;;;;;;;;;;;;;;;6256414;22;19915;-92
2023/06/21 02:21:56;;;;;;;;;;;;;;;;;;6281331;22;19926;-92
2023/06/21 02:24:22;;;;;;;;;;;;;;;;;;6281449;22;19915;-92
2023/06/21 02:26:48;;;;;;;;;;;;;;;;;;6281692;22;19973;-93
2023/06/21 02:29:14;;;;;;;;;;;;;;;;;;6255751;22;20309;-93
2023/06/21 02:31:40;;;;;;;;;;;;;;;;;;6255562;22;20084;-92
2023/06/21 02:34:06;;;;;;;;;;;;;;;;;;6281126;22;19915;-96
2023/06/21 02:36:32;;;;;;;;;;;;;;;;;;6281526;22;20342;-94
2023/06/21 02:38:58;;;;;;;;;;;;;;;;;;6256140;22;19914;-94
2023/06/21 02:41:24;;;;;;;;;;;;;;;;;;6281869;22;19990;-93
2023/06/21 02:43:50;;;;;;;;;;;;;;;;;;6256226;22;20302;-93
2023/06/21 02:46:15;;;;;;;;;;;;;;;;;;6281174;22;19937;-94
2023/06/21 02:48:41;;;;;;;;;;;;;;;;;;6281788;22;19915;-94
2023/06/21 02:51:07;;;;;;;;;;;;;;;;;;6281708;22;19919;-93
2023/06/21 02:53:33;;;;;;;;;;;;;;;;;;6256135;22;19930;-93
2023/06/21 02:55:59;;;;;;;;;;;;;;;;;;6281557;22;19921;-93
2023/06/21 02:58:25;;;;;;;;;;;;;;;;;;6255784;22;19998;-93
2023/06/21 03:00:51;;;;;;;;;;;;;;;;;;6281655;22;19919;-93
2023/06/21 03:03:17;;;;;;;;;;;;;;;;;;6281306;22;19989;-93
2023/06/21 03:05:43;;;;;;;;;;;;;;;;;;6280506;22;19941;-93
2023/06/21 03:08:09;;;;;;;;;;;;;;;;;;6255141;22;19931;-93
2023/06/21 03:10:36;;;;;;;;;;;;;;;;;;6281198;22;20186;-94
2023/06/21 03:13:02;;;;;;;;;;;;;;;;;;6281150;22;19997;-92
2023/06/21 03:15:28;;;;;;;;;;;;;;;;;;6280951;22;19923;-94
2023/06/21 03:17:54;;;;;;;;;;;;;;;;;;6256026;22;19922;-94
2023/06/21 03:20:22;;;;;;;;;;;;;;;;;;6281108;22;19915;-94
2023/06/21 03:22:49;;;;;;;;;;;;;;;;;;6280959;22;19926;-94
2023/06/21 03:25:15;;;;;;;;;;;;;;;;;;6256123;22;19954;-93
2023/06/21 03:27:41;;;;;;;;;;;;;;;;;;6255014;22;20320;-94
2023/06/21 03:30:07;;;;;;;;;;;;;;;;;;6281243;22;19918;-94
2023/06/21 03:32:33;;;;;;;;;;;;;;;;;;6281134;22;19915;-95
2023/06/21 03:34:59;;;;;;;;;;;;;;;;;;6255382;22;19921;-95
2023/06/21 03:37:25;;;;;;;;;;;;;;;;;;6255462;22;19919;-94
2023/06/21 03:39:51;;;;;;;;;;;;;;;;;;6281739;22;19915;-95
2023/06/21 03:42:16;;;;;;;;;;;;;;;;;;6280735;22;20005;-94
2023/06/21 03:44:42;;;;;;;;;;;;;;;;;;6281219;22;19915;-93
2023/06/21 03:47:10;;;;;;;;;;;;;;;;;;6281546;22;20382;-94
2023/06/21 03:49:36;;;;;;;;;;;;;;;;;;6280916;22;19914;-94
2023/06/21 03:52:03;;;;;;;;;;;;;;;;;;6280927;22;19953;-93
2023/06/21 03:54:29;;;;;;;;;;;;;;;;;;6281141;22;19915;-95
2023/06/21 03:56:55;;;;;;;;;;;;;;;;;;6255277;22;19947;-95
2023/06/21 03:59:21;;;;;;;;;;;;;;;;;;6255291;22;19915;-94
2023/06/21 04:01:47;;;;;;;;;;;;;;;;;;6280816;22;19946;-94
2023/06/21 04:04:13;;;;;;;;;;;;;;;;;;6254877;22;19915;-95
2023/06/21 04:06:39;;;;;;;;;;;;;;;;;;6280330;22;19915;-93
2023/06/21 04:09:05;;;;;;;;;;;;;;;;;;6254814;22;19915;-93
2023/06/21 04:11:31;;;;;;;;;;;;;;;;;;6280769;22;20321;-94
2023/06/21 04:13:57;;;;;;;;;;;;;;;;;;6280629;22;19964;-93
2023/06/21 04:16:22;;;;;;;;;;;;;;;;;;6281061;22;19915;-93
2023/06/21 04:25:09;;;;;;;;;;;;;;;;;;6330771;22;20077;-91
2023/06/21 04:37:33;;;;;;;;;;;;;;;;;;6105506;23;19917;-96
2023/06/21 04:39:47;;;;;;;;;;;;;;;;;;6153159;23;20198;-95
2023/06/21 04:42:13;;;;;;;;;;;;;;;;;;6158654;23;19948;-95
2023/06/21 04:44:39;;;;;;;;;;;;;;;;;;6214490;22;19915;-95
2023/06/21 04:47:05;;;;;;;;;;;;;;;;;;6280702;22;19922;-95
2023/06/21 04:49:30;;;;;;;;;;;;;;;;;;6255276;22;20181;-94
2023/06/21 04:51:58;;;;;;;;;;;;;;;;;;6254846;22;19918;-94
2023/06/21 04:54:24;;;;;;;;;;;;;;;;;;6280813;22;20212;-93
2023/06/21 04:56:51;;;;;;;;;;;;;;;;;;6255402;22;19946;-95
2023/06/21 04:59:17;;;;;;;;;;;;;;;;;;6255009;22;19919;-94
2023/06/21 05:01:43;;;;;;;;;;;;;;;;;;6255157;22;19919;-94
2023/06/21 05:04:09;;;;;;;;;;;;;;;;;;6282878;22;19922;-94
2023/06/21 05:06:46;;;;;;;;;;;;;;;;;;;;;
2023/06/21 05:09:13;;;;;;;;;;;;;;;;;;6283481;22;19950;-94
2023/06/21 05:11:39;;;;;;;;;;;;;;;;;;6281870;22;19938;-95
2023/06/21 05:14:05;;;;;;;;;;;;;;;;;;6256395;22;20109;-94
2023/06/21 05:16:34;;;;;;;;;;;;;;;;;;6306243;22;19940;-94
2023/06/21 05:19:00;;;;;;;;;;;;;;;;;;6280258;22;20266;-94
2023/06/21 05:21:26;;;;;;;;;;;;;;;;;;6280312;22;20313;-94
2023/06/21 05:23:52;;;;;;;;;;;;;;;;;;6280306;22;19919;-95
2023/06/21 05:26:18;;;;;;;;;;;;;;;;;;6255818;22;19989;-93
2023/06/21 05:28:43;;;;;;;;;;;;;;;;;;6280781;22;19915;-93
2023/06/21 05:31:09;;;;;;;;;;;;;;;;;;6282047;22;19922;-94
2023/06/21 05:33:40;;;;;;;;;;;;;;;;;;6284817;22;20023;-95
2023/06/21 05:36:08;;;;;;;;;;;;;;;;;;6282870;22;20309;-95
2023/06/21 05:38:34;;;;;;;;;;;;;;;;;;6257321;22;19922;-93
2023/06/21 05:41:00;;;;;;;;;;;;;;;;;;6282944;22;19915;-92
2023/06/21 05:43:26;;;;;;;;;;;;;;;;;;6256824;22;20328;-91
2023/06/21 05:45:52;;;;;;;;;;;;;;;;;;6255981;22;20335;-93
2023/06/21 05:48:18;;;;;;;;;;;;;;;;;;6281229;22;20552;-90
2023/06/21 05:50:44;;;;;;;;;;;;;;;;;;6281399;22;19919;-90
2023/06/21 05:53:10;;;;;;;;;;;;;;;;;;6282509;22;19930;-92
2023/06/21 05:55:36;;;;;;;;;;;;;;;;;;6281812;22;19926;-91
2023/06/21 05:58:02;;;;;;;;;;;;;;;;;;6281479;22;19926;-91
2023/06/21 06:00:30;;;;;;;;;;;;;;;;;;6256285;22;19914;-95
2023/06/21 06:02:56;;;;;;;;;;;;;;;;;;6256177;22;20297;-93
2023/06/21 06:08:09;;;;;;;;;;;;;;;;;;6310811;22;19919;-95
2023/06/21 06:10:35;;;;;;;;;;;;;;;;;;6256305;22;19950;-92
2023/06/21 06:13:01;;;;;;;;;;;;;;;;;;6281716;22;19922;-92
2023/06/21 06:15:27;;;;;;;;;;;;;;;;;;6281934;22;20221;-93
2023/06/21 06:17:52;;;;;;;;;;;;;;;;;;6255693;22;19997;-92
2023/06/21 06:20:18;;;;;;;;;;;;;;;;;;6281482;22;19938;-93
2023/06/21 06:22:44;;;;;;;;;;;;;;;;;;6255912;22;20028;-92
2023/06/21 06:25:10;;;;;;;;;;;;;;;;;;6256199;22;19915;-91
2023/06/21 06:27:36;;;;;;;;;;;;;;;;;;6281017;22;19922;-92
2023/06/21 06:30:02;;;;;;;;;;;;;;;;;;6281517;22;19919;-93
2023/06/21 06:32:28;;;;;;;;;;;;;;;;;;6281752;22;19954;-93
2023/06/21 06:34:54;;;;;;;;;;;;;;;;;;6256312;22;20071;-93
2023/06/21 06:37:24;;;;;;;;;;;;;;;;;;6255584;22;19955;-93
2023/06/21 06:39:50;;;;;;;;;;;;;;;;;;6281855;22;20032;-94
2023/06/21 06:42:16;;;;;;;;;;;;;;;;;;6255194;22;19954;-94
2023/06/21 06:44:43;;;;;;;;;;;;;;;;;;6281850;22;20285;-95
2023/06/21 06:47:09;;;;;;;;;;;;;;;;;;6255728;22;19915;-93
2023/06/21 06:49:35;;;;;;;;;;;;;;;;;;6281621;22;19938;-93
2023/06/21 06:52:01;;;;;;;;;;;;;;;;;;6255642;22;19922;-93
2023/06/21 06:54:27;;;;;;;;;;;;;;;;;;6255938;22;19915;-91
2023/06/21 06:56:53;;;;;;;;;;;;;;;;;;6255555;22;20286;-93
2023/06/21 06:59:19;;;;;;;;;;;;;;;;;;6255513;22;19915;-91
2023/06/21 07:01:44;;;;;;;;;;;;;;;;;;6255392;22;19919;-92
2023/06/21 07:04:10;;;;;;;;;;;;;;;;;;6255760;22;19921;-93
2023/06/21 07:06:36;;;;;;;;;;;;;;;;;;6255237;22;20453;-91
2023/06/21 07:09:02;;;;;;;;;;;;;;;;;;6280563;22;19915;-89
2023/06/21 07:11:28;;;;;;;;;;;;;;;;;;6280952;22;19995;-95
2023/06/21 07:13:54;;;;;;;;;;;;;;;;;;6254274;22;19922;-92
2023/06/21 07:16:20;;;;;;;;;;;;;;;;;;6255390;22;19990;-94
2023/06/21 07:18:46;;;;;;;;;;;;;;;;;;6255353;22;19922;-93
2023/06/21 07:21:12;;;;;;;;;;;;;;;;;;6254838;22;20103;-92
2023/06/21 07:23:38;;;;;;;;;;;;;;;;;;6279995;22;19950;-89
2023/06/21 07:26:04;;;;;;;;;;;;;;;;;;6279482;22;19946;-91
2023/06/21 07:28:30;;;;;;;;;;;;;;;;;;6254141;22;20347;-90
2023/06/21 07:30:56;;;;;;;;;;;;;;;;;;6279914;22;19915;-89
2023/06/21 07:33:22;;;;;;;;;;;;;;;;;;6279935;22;20326;-90
2023/06/21 07:35:48;;;;;;;;;;;;;;;;;;6279769;22;19915;-93
2023/06/21 07:38:14;;;;;;;;;;;;;;;;;;6254492;22;19915;-90
2023/06/21 07:40:40;;;;;;;;;;;;;;;;;;6279469;22;20433;-90
2023/06/21 07:43:06;;;;;;;;;;;;;;;;;;6279798;22;19919;-89
2023/06/21 07:45:32;;;;;;;;;;;;;;;;;;6254501;22;20248;-94
2023/06/21 07:47:58;;;;;;;;;;;;;;;;;;6255196;22;19919;-91
2023/06/21 07:50:27;;;;;;;;;;;;;;;;;;6279469;22;19922;-88
2023/06/21 07:52:53;;;;;;;;;;;;;;;;;;6253542;22;19915;-87
2023/06/21 07:55:19;;;;;;;;;;;;;;;;;;6279606;22;19915;-90
2023/06/21 07:57:45;;;;;;;;;;;;;;;;;;6279683;22;19915;-91
2023/06/21 08:00:11;;;;;;;;;;;;;;;;;;6254097;22;19922;-88
2023/06/21 08:02:37;;;;;;;;;;;;;;;;;;6253810;22;19918;-87
2023/06/21 08:05:03;;;;;;;;;;;;;;;;;;6307081;22;19915;-87
2023/06/21 08:07:29;;;;;;;;;;;;;;;;;;6278781;22;19919;-87
2023/06/21 08:09:55;;;;;;;;;;;;;;;;;;6279375;22;19981;-87
2023/06/21 08:12:21;;;;;;;;;;;;;;;;;;6279625;22;19919;-87
2023/06/21 08:14:47;;;;;;;;;;;;;;;;;;6279313;22;20355;-87
2023/06/21 08:17:13;;;;;;;;;;;;;;;;;;6279312;22;20256;-87
2023/06/21 08:19:39;;;;;;;;;;;;;;;;;;6279398;22;20332;-89
2023/06/21 08:22:04;;;;;;;;;;;;;;;;;;6284623;22;20264;-90
2023/06/21 08:24:30;;;;;;;;;;;;;;;;;;6253464;22;19919;-88
2023/06/21 08:26:56;;;;;;;;;;;;;;;;;;6279120;22;20010;-88
2023/06/21 08:29:22;;;;;;;;;;;;;;;;;;6279060;22;19914;-87
2023/06/21 08:31:48;;;;;;;;;;;;;;;;;;6306345;22;19922;-88
2023/06/21 08:34:14;;;;;;;;;;;;;;;;;;6279112;22;19915;-88
2023/06/21 08:36:40;;;;;;;;;;;;;;;;;;6253278;22;19937;-87
2023/06/21 08:39:06;;;;;;;;;;;;;;;;;;6279090;22;19964;-88
2023/06/21 08:41:32;;;;;;;;;;;;;;;;;;6278701;22;19919;-88
2023/06/21 08:43:58;;;;;;;;;;;;;;;;;;6278750;22;20248;-87
2023/06/21 08:46:24;;;;;;;;;;;;;;;;;;6278756;22;19915;-88
2023/06/21 08:48:49;;;;;;;;;;;;;;;;;;6278962;22;19914;-88
2023/06/21 08:51:16;;;;;;;;;;;;;;;;;;6279305;22;20240;-88
2023/06/21 08:53:41;;;;;;;;;;;;;;;;;;6279366;22;20332;-88
2023/06/21 08:56:07;;;;;;;;;;;;;;;;;;6278936;22;19995;-88
2023/06/21 08:58:33;;;;;;;;;;;;;;;;;;6278863;22;19918;-87
2023/06/21 09:00:59;;;;;;;;;;;;;;;;;;6278765;22;20264;-87
2023/06/21 09:03:26;;;;;;;;;;;;;;;;;;6306084;22;20036;-87
2023/06/21 09:05:52;;;;;;;;;;;;;;;;;;6278041;22;19915;-88
2023/06/21 09:08:18;;;;;;;;;;;;;;;;;;6278864;22;19925;-87
2023/06/21 09:10:44;;;;;;;;;;;;;;;;;;6305823;22;19989;-87
2023/06/21 09:13:10;;;;;;;;;;;;;;;;;;6278732;22;19915;-87
2023/06/21 09:15:36;;;;;;;;;;;;;;;;;;6253247;22;19968;-88
2023/06/21 09:18:02;;;;;;;;;;;;;;;;;;6278367;22;19915;-87
2023/06/21 09:20:28;;;;;;;;;;;;;;;;;;6278844;22;19994;-88
2023/06/21 09:22:54;;;;;;;;;;;;;;;;;;6278532;22;19998;-88
2023/06/21 09:25:20;;;;;;;;;;;;;;;;;;6278652;22;20312;-88
2023/06/21 09:27:46;;;;;;;;;;;;;;;;;;6278553;22;19918;-88
2023/06/21 09:30:12;;;;;;;;;;;;;;;;;;6278496;22;19915;-87
2023/06/21 09:32:38;;;;;;;;;;;;;;;;;;6278805;22;20252;-87
2023/06/21 09:35:04;;;;;;;;;;;;;;;;;;6305588;22;19922;-87
2023/06/21 09:37:30;;;;;;;;;;;;;;;;;;6252566;22;19915;-87
2023/06/21 09:39:56;;;;;;;;;;;;;;;;;;6278727;22;19946;-87
2023/06/21 09:42:21;;;;;;;;;;;;;;;;;;6252960;22;20220;-88
2023/06/21 09:44:48;;;;;;;;;;;;;;;;;;6278522;22;20260;-88
2023/06/21 09:47:14;;;;;;;;;;;;;;;;;;6278440;22;20029;-87
2023/06/21 09:49:40;;;;;;;;;;;;;;;;;;6278503;22;20010;-88
2023/06/21 09:52:05;;;;;;;;;;;;;;;;;;6278880;22;19985;-87
2023/06/21 09:54:31;;;;;;;;;;;;;;;;;;6278529;22;20252;-88
2023/06/21 09:56:57;;;;;;;;;;;;;;;;;;6282105;22;19919;-87
2023/06/21 09:59:23;;;;;;;;;;;;;;;;;;6253528;22;19919;-87
2023/06/21 10:01:50;;;;;;;;;;;;;;;;;;6278645;22;20451;-88
2023/06/21 10:04:16;;;;;;;;;;;;;;;;;;6278945;22;19919;-88
2023/06/21 10:06:43;;;;;;;;;;;;;;;;;;6278055;22;19926;-88
2023/06/21 10:09:09;;;;;;;;;;;;;;;;;;6252930;22;19954;-88
2023/06/21 10:11:35;;;;;;;;;;;;;;;;;;6278573;22;19946;-88
2023/06/21 10:14:01;;;;;;;;;;;;;;;;;;6252737;22;19938;-88
2023/06/21 10:16:27;;;;;;;;;;;;;;;;;;6280141;22;20241;-88
2023/06/21 10:18:53;;;;;;;;;;;;;;;;;;6280242;22;20086;-88
2023/06/21 10:21:19;;;;;;;;;;;;;;;;;;6279919;22;19926;-88
2023/06/21 10:23:45;;;;;;;;;;;;;;;;;;6280257;22;19965;-87
2023/06/21 10:26:11;;;;;;;;;;;;;;;;;;6280225;22;19915;-88
2023/06/21 10:28:37;;;;;;;;;;;;;;;;;;6307165;22;19998;-88
2023/06/21 10:31:03;;;;;;;;;;;;;;;;;;6308375;22;19959;-88
2023/06/21 10:33:30;;;;;;;;;;;;;;;;;;6280037;22;19986;-88
2023/06/21 10:35:56;;;;;;;;;;;;;;;;;;6254323;22;19922;-88
2023/06/21 10:38:23;;;;;;;;;;;;;;;;;;6307368;22;19914;-87
2023/06/21 10:40:48;;;;;;;;;;;;;;;;;;6294006;22;20305;-87
2023/06/21 10:43:14;;;;;;;;;;;;;;;;;;6280011;22;19934;-88
2023/06/21 10:45:40;;;;;;;;;;;;;;;;;;6280275;22;19915;-88
2023/06/21 10:48:06;;;;;;;;;;;;;;;;;;6279977;22;19977;-88
2023/06/21 10:50:32;;;;;;;;;;;;;;;;;;6279902;22;20245;-88
2023/06/21 10:52:58;;;;;;;;;;;;;;;;;;6279913;22;19925;-87
2023/06/21 10:55:24;;;;;;;;;;;;;;;;;;6279672;22;19957;-87
2023/06/21 10:57:50;;;;;;;;;;;;;;;;;;6279711;22;19915;-88
2023/06/21 11:00:16;;;;;;;;;;;;;;;;;;6279873;22;19921;-88
2023/06/21 11:02:42;;;;;;;;;;;;;;;;;;6279619;22;19918;-88
2023/06/21 11:05:08;;;;;;;;;;;;;;;;;;6280031;22;19957;-88
2023/06/21 11:07:34;;;;;;;;;;;;;;;;;;6279475;22;20443;-88
2023/06/21 11:09:59;;;;;;;;;;;;;;;;;;6279659;22;19990;-88
2023/06/21 11:12:26;;;;;;;;;;;;;;;;;;6307356;22;19981;-88
2023/06/21 11:14:52;;;;;;;;;;;;;;;;;;6279434;22;19915;-88
2023/06/21 11:17:17;;;;;;;;;;;;;;;;;;6279691;22;20001;-89
2023/06/21 11:19:43;;;;;;;;;;;;;;;;;;6279758;22;20374;-88
2023/06/21 11:22:09;;;;;;;;;;;;;;;;;;6279585;22;19927;-87
2023/06/21 11:24:44;;;;;;;;;;;;;;;;;;6279741;22;19918;-88
2023/06/21 11:27:10;;;;;;;;;;;;;;;;;;6253791;22;20210;-88
2023/06/21 11:29:36;;;;;;;;;;;;;;;;;;6253853;22;19938;-88
2023/06/21 11:32:02;;;;;;;;;;;;;;;;;;6279263;22;19915;-87
2023/06/21 11:34:29;;;;;;;;;;;;;;;;;;6279903;22;20002;-87
2023/06/21 11:36:55;;;;;;;;;;;;;;;;;;6253784;22;19934;-87
2023/06/21 11:39:21;;;;;;;;;;;;;;;;;;6279365;22;19915;-87
2023/06/21 11:41:47;;;;;;;;;;;;;;;;;;6307524;22;19918;-88
2023/06/21 11:44:13;;;;;;;;;;;;;;;;;;6279554;22;19961;-87
2023/06/21 11:46:39;;;;;;;;;;;;;;;;;;6253828;22;19984;-88
2023/06/21 11:49:05;;;;;;;;;;;;;;;;;;6279605;22;19915;-87
2023/06/21 11:51:31;;;;;;;;;;;;;;;;;;6279191;22;19922;-87
2023/06/21 11:53:57;;;;;;;;;;;;;;;;;;6279565;22;19954;-87
2023/06/21 11:56:22;;;;;;;;;;;;;;;;;;6253716;22;19915;-88
2023/06/21 11:58:50;;;;;;;;;;;;;;;;;;6253972;22;19934;-88
2023/06/21 12:01:15;;;;;;;;;;;;;;;;;;6279492;22;19972;-87
2023/06/21 12:03:41;;;;;;;;;;;;;;;;;;6306659;22;19915;-88
2023/06/21 12:06:07;;;;;;;;;;;;;;;;;;6278982;22;21396;-88
2023/06/21 12:08:33;;;;;;;;;;;;;;;;;;6254192;22;19919;-87
2023/06/21 12:10:59;;;;;;;;;;;;;;;;;;6279235;22;20301;-87
2023/06/21 12:13:25;;;;;;;;;;;;;;;;;;6279264;22;19983;-87
2023/06/21 12:15:51;;;;;;;;;;;;;;;;;;6279075;22;20006;-87
2023/06/21 12:18:17;;;;;;;;;;;;;;;;;;6279274;22;19995;-88
2023/06/21 12:20:43;;;;;;;;;;;;;;;;;;6306236;22;19937;-88
2023/06/21 12:23:09;;;;;;;;;;;;;;;;;;6278769;22;19919;-88
2023/06/21 12:25:35;;;;;;;;;;;;;;;;;;6253347;22;19994;-87
2023/06/21 12:28:02;;;;;;;;;;;;;;;;;;6278733;22;19950;-87
2023/06/21 12:30:28;;;;;;;;;;;;;;;;;;6280107;22;19919;-87
2023/06/21 12:32:54;;;;;;;;;;;;;;;;;;6279183;22;20382;-87
2023/06/21 12:35:20;;;;;;;;;;;;;;;;;;6279052;22;19946;-88
2023/06/21 12:37:46;;;;;;;;;;;;;;;;;;6278834;22;19915;-87
2023/06/21 12:40:12;;;;;;;;;;;;;;;;;;6279038;22;20168;-87
2023/06/21 12:42:38;;;;;;;;;;;;;;;;;;6278613;22;20260;-87
2023/06/21 12:45:05;;;;;;;;;;;;;;;;;;6278733;22;19914;-87
2023/06/21 12:47:31;;;;;;;;;;;;;;;;;;6278794;22;19915;-88
2023/06/21 12:49:57;;;;;;;;;;;;;;;;;;6278488;22;20037;-88
2023/06/21 12:52:22;;;;;;;;;;;;;;;;;;6253526;22;19915;-88
2023/06/21 12:54:48;;;;;;;;;;;;;;;;;;6278862;22;19915;-87
2023/06/21 12:57:14;;;;;;;;;;;;;;;;;;6278544;22;19990;-87
2023/06/21 12:59:40;;;;;;;;;;;;;;;;;;6278891;22;19915;-87
2023/06/21 13:02:06;;;;;;;;;;;;;;;;;;6278550;22;19926;-87
2023/06/21 13:04:32;;;;;;;;;;;;;;;;;;6278585;22;19915;-87
2023/06/21 13:06:58;;;;;;;;;;;;;;;;;;6305654;22;20002;-87
2023/06/21 13:09:24;;;;;;;;;;;;;;;;;;6278520;22;19922;-88
2023/06/21 13:11:50;;;;;;;;;;;;;;;;;;6278288;22;19915;-87
2023/06/21 13:14:16;;;;;;;;;;;;;;;;;;6306122;22;19922;-88
2023/06/21 13:16:42;;;;;;;;;;;;;;;;;;6278496;22;20345;-87
2023/06/21 13:19:08;;;;;;;;;;;;;;;;;;6305892;22;19994;-88
2023/06/21 13:21:34;;;;;;;;;;;;;;;;;;6253037;22;19919;-88
2023/06/21 13:24:00;;;;;;;;;;;;;;;;;;6278844;22;19919;-88
2023/06/21 13:26:26;;;;;;;;;;;;;;;;;;6278528;22;19968;-87
2023/06/21 13:28:52;;;;;;;;;;;;;;;;;;6278994;22;19982;-87
2023/06/21 13:31:18;;;;;;;;;;;;;;;;;;6279043;22;19926;-88
2023/06/21 13:33:44;;;;;;;;;;;;;;;;;;6278887;22;20245;-87
2023/06/21 13:36:10;;;;;;;;;;;;;;;;;;6305833;22;19915;-88
2023/06/21 13:38:36;;;;;;;;;;;;;;;;;;6278737;22;19918;-88
2023/06/21 13:41:03;;;;;;;;;;;;;;;;;;6278228;22;19922;-88
2023/06/21 13:43:29;;;;;;;;;;;;;;;;;;6305841;22;20252;-87
2023/06/21 13:45:55;;;;;;;;;;;;;;;;;;6306511;22;19915;-87
2023/06/21 13:48:21;;;;;;;;;;;;;;;;;;6278442;22;19919;-88
2023/06/21 13:50:47;;;;;;;;;;;;;;;;;;6279104;22;19915;-88
2023/06/21 13:53:13;;;;;;;;;;;;;;;;;;6280288;22;20351;-88
2023/06/21 13:55:40;;;;;;;;;;;;;;;;;;6279765;22;19915;-87
2023/06/21 13:58:05;;;;;;;;;;;;;;;;;;6306972;22;19915;-87
2023/06/21 14:00:31;;;;;;;;;;;;;;;;;;6279913;22;19915;-89
2023/06/21 14:02:57;;;;;;;;;;;;;;;;;;6279904;22;20380;-88
2023/06/21 14:05:23;;;;;;;;;;;;;;;;;;6307605;22;19915;-87
2023/06/21 14:07:49;;;;;;;;;;;;;;;;;;6279618;22;19919;-88
2023/06/21 14:10:15;;;;;;;;;;;;;;;;;;6279845;22;19957;-88
2023/06/21 14:12:41;;;;;;;;;;;;;;;;;;6279831;22;20221;-88
2023/06/21 14:15:07;;;;;;;;;;;;;;;;;;6280133;22;19981;-88
2023/06/21 14:17:33;;;;;;;;;;;;;;;;;;6307256;22;20010;-87
2023/06/21 14:20:00;;;;;;;;;;;;;;;;;;6279730;22;19921;-87
2023/06/21 14:22:29;;;;;;;;;;;;;;;;;;6254370;22;19922;-88
2023/06/21 14:24:55;;;;;;;;;;;;;;;;;;6307451;22;19915;-88
2023/06/21 14:27:21;;;;;;;;;;;;;;;;;;6279522;22;20350;-88
2023/06/21 14:29:48;;;;;;;;;;;;;;;;;;6254112;22;20198;-88
2023/06/21 14:32:14;;;;;;;;;;;;;;;;;;6254080;22;20317;-88
2023/06/21 14:34:44;;;;;;;;;;;;;;;;;;6254425;22;19957;-88
2023/06/21 14:37:11;;;;;;;;;;;;;;;;;;6279731;22;19950;-88
2023/06/21 14:39:38;;;;;;;;;;;;;;;;;;6279477;22;19938;-88
2023/06/21 14:42:03;;;;;;;;;;;;;;;;;;6279313;22;19930;-87
2023/06/21 14:44:29;;;;;;;;;;;;;;;;;;6254178;22;19915;-87
2023/06/21 14:46:55;;;;;;;;;;;;;;;;;;6279788;22;20059;-87
2023/06/21 14:49:21;;;;;;;;;;;;;;;;;;6279575;22;19922;-88
2023/06/21 14:51:47;;;;;;;;;;;;;;;;;;6279405;22;19980;-88
2023/06/21 14:54:13;;;;;;;;;;;;;;;;;;6279542;22;19976;-88
2023/06/21 14:56:39;;;;;;;;;;;;;;;;;;6279483;22;19915;-87
2023/06/21 14:59:05;;;;;;;;;;;;;;;;;;6253814;22;19915;-87
2023/06/21 15:01:31;;;;;;;;;;;;;;;;;;6279461;22;20288;-88
2023/06/21 15:03:57;;;;;;;;;;;;;;;;;;6279755;22;20347;-87
2023/06/21 15:06:23;;;;;;;;;;;;;;;;;;6306762;22;19926;-87
2023/06/21 15:08:49;;;;;;;;;;;;;;;;;;6279479;22;19915;-88
2023/06/21 15:11:15;;;;;;;;;;;;;;;;;;6279846;22;19948;-87
2023/06/21 15:13:41;;;;;;;;;;;;;;;;;;6253796;22;19915;-88
2023/06/21 15:16:07;;;;;;;;;;;;;;;;;;6254097;22;19918;-87
2023/06/21 15:18:33;;;;;;;;;;;;;;;;;;6279630;22;19993;-87
2023/06/21 15:20:59;;;;;;;;;;;;;;;;;;6279187;22;19950;-87
2023/06/21 15:23:25;;;;;;;;;;;;;;;;;;6279992;22;19940;-88
2023/06/21 15:25:51;;;;;;;;;;;;;;;;;;6279559;22;19914;-87
2023/06/21 15:28:17;;;;;;;;;;;;;;;;;;6307298;22;19940;-87
2023/06/21 15:30:42;;;;;;;;;;;;;;;;;;6280547;22;19915;-87
2023/06/21 15:33:08;;;;;;;;;;;;;;;;;;6279949;22;19981;-87
2023/06/21 15:35:34;;;;;;;;;;;;;;;;;;6254243;22;19921;-88
2023/06/21 15:38:00;;;;;;;;;;;;;;;;;;6279753;22;19919;-87
2023/06/21 15:40:26;;;;;;;;;;;;;;;;;;6279667;22;19968;-87
2023/06/21 15:42:52;;;;;;;;;;;;;;;;;;6279493;22;20120;-87
2023/06/21 15:45:18;;;;;;;;;;;;;;;;;;6279718;22;19972;-87
2023/06/21 15:47:44;;;;;;;;;;;;;;;;;;6279078;22;19965;-87
2023/06/21 15:50:11;;;;;;;;;;;;;;;;;;6279243;22;19914;-87
2023/06/21 15:52:37;;;;;;;;;;;;;;;;;;6279947;22;20237;-87
2023/06/21 15:55:03;;;;;;;;;;;;;;;;;;6254045;22;19915;-88
2023/06/21 15:57:29;;;;;;;;;;;;;;;;;;6279624;22;19970;-87
2023/06/21 15:59:55;;;;;;;;;;;;;;;;;;6307281;22;19915;-87
2023/06/21 16:02:20;;;;;;;;;;;;;;;;;;6279660;22;19926;-88
2023/06/21 16:04:47;;;;;;;;;;;;;;;;;;6279548;22;19915;-88
2023/06/21 16:07:12;;;;;;;;;;;;;;;;;;6279237;22;20304;-87
2023/06/21 16:09:38;;;;;;;;;;;;;;;;;;6279635;22;19934;-88
2023/06/21 16:12:04;;;;;;;;;;;;;;;;;;6306566;22;19915;-87
2023/06/21 16:14:30;;;;;;;;;;;;;;;;;;6307427;22;20328;-88
2023/06/21 16:16:56;;;;;;;;;;;;;;;;;;6279142;22;19950;-87
2023/06/21 16:19:23;;;;;;;;;;;;;;;;;;6279438;22;19915;-88
2023/06/21 16:21:49;;;;;;;;;;;;;;;;;;6306666;22;19919;-87
2023/06/21 16:24:19;;;;;;;;;;;;;;;;;;6279178;22;19925;-87
2023/06/21 16:26:45;;;;;;;;;;;;;;;;;;6253816;22;19939;-87
2023/06/21 16:29:10;;;;;;;;;;;;;;;;;;6306879;22;20355;-88
2023/06/21 16:31:37;;;;;;;;;;;;;;;;;;6279400;22;19915;-88
2023/06/21 16:34:03;;;;;;;;;;;;;;;;;;6298285;22;19922;-87
2023/06/21 16:36:29;;;;;;;;;;;;;;;;;;6279227;22;20329;-88
2023/06/21 16:38:55;;;;;;;;;;;;;;;;;;6278952;22;19921;-87
2023/06/21 16:41:21;;;;;;;;;;;;;;;;;;6278848;22;19919;-88
2023/06/21 16:43:47;;;;;;;;;;;;;;;;;;6278961;22;19921;-87
2023/06/21 16:46:13;;;;;;;;;;;;;;;;;;6278704;22;19925;-87
2023/06/21 16:48:39;;;;;;;;;;;;;;;;;;6276082;22;19915;-88
2023/06/21 16:51:05;;;;;;;;;;;;;;;;;;6276999;22;19922;-88
2023/06/21 16:53:31;;;;;;;;;;;;;;;;;;6275453;22;19915;-87
2023/06/21 16:55:57;;;;;;;;;;;;;;;;;;6277971;22;19915;-87
2023/06/21 16:58:22;;;;;;;;;;;;;;;;;;6305579;22;19990;-87